createdAt,value
2023-04-18T00:04:10.700Z,240.3
2023-04-18T00:09:09.742Z,241.3
2023-04-18T00:14:08.958Z,239
2023-04-18T00:19:09.424Z,239.2
2023-04-18T00:24:08.057Z,240.2
2023-04-18T00:29:09.007Z,240.9
2023-04-18T00:34:06.153Z,238
2023-04-18T00:39:06.001Z,238.9
2023-04-18T00:44:05.987Z,239.7
2023-04-18T00:54:04.561Z,239.2
2023-04-18T01:05:26.068Z,243.8
2023-04-18T01:10:25.024Z,243.6
2023-04-18T01:15:24.011Z,242.7
2023-04-18T01:20:24.118Z,245.8
2023-04-18T01:25:23.453Z,244.8
2023-04-18T01:30:31.575Z,246.7
2023-04-18T01:35:21.862Z,245.3
2023-04-18T01:40:21.983Z,246.9
2023-04-18T01:45:21.768Z,246
2023-04-18T01:55:20.215Z,244.7
2023-04-18T02:04:53.271Z,241.9
2023-04-18T02:09:50.795Z,239.1
2023-04-18T02:14:50.595Z,238.8
2023-04-18T02:19:50.515Z,237.3
2023-04-18T02:24:50.389Z,237.4
2023-04-18T02:29:50.731Z,238.2
2023-04-18T02:34:50.364Z,239.5
2023-04-18T02:39:51.732Z,242.1
2023-04-18T02:44:48.770Z,240.7
2023-04-18T02:49:48.075Z,239.5
2023-04-18T02:54:49.531Z,237.2
2023-04-18T02:59:23.877Z,249.6
2023-04-18T03:04:24.520Z,249.7
2023-04-18T03:09:23.731Z,250.1
2023-04-18T03:14:23.563Z,251.3
2023-04-18T03:19:21.769Z,250.5
2023-04-18T03:24:22.931Z,250.1
2023-04-18T03:29:20.852Z,250.2
2023-04-18T03:34:21.999Z,251.1
2023-04-18T03:39:18.908Z,250.2
2023-04-18T03:44:18.892Z,249.8
2023-04-18T03:49:17.757Z,249.8
2023-04-18T03:54:17.292Z,250.1
2023-04-18T03:59:16.156Z,251.2
2023-04-18T04:44:12.039Z,251.8
2023-04-18T04:49:11.502Z,250.8
2023-04-18T04:54:11.614Z,251.3
2023-04-18T04:59:10.962Z,250
2023-04-18T05:05:32.475Z,253.1
2023-04-18T05:10:31.744Z,251.1
2023-04-18T05:15:32.134Z,249.6
2023-04-18T05:20:29.289Z,250.5
2023-04-18T05:25:29.009Z,248.6
2023-04-18T05:35:27.525Z,250.5
2023-04-18T05:50:25.736Z,249.5
2023-04-18T07:04:22.736Z,270.1
2023-04-18T07:09:21.792Z,274.7
2023-04-18T07:14:20.910Z,274.7
2023-04-18T07:19:20.420Z,273.8
2023-04-18T07:24:18.879Z,275.8
2023-04-18T07:29:18.557Z,284.1
2023-04-18T07:34:18.585Z,276.3
2023-04-18T07:39:18.034Z,280.7
2023-04-18T07:44:17.616Z,281.4
2023-04-18T07:49:17.216Z,280.7
2023-04-18T07:54:17.105Z,283.8
2023-04-18T07:59:16.742Z,288
2023-04-18T08:04:18.343Z,290.6
2023-04-18T08:09:15.011Z,288.2
2023-04-18T08:14:14.670Z,289.3
2023-04-18T08:19:14.701Z,290.6
2023-04-18T08:24:14.462Z,291.5
2023-04-18T08:29:16.482Z,290.1
2023-04-18T08:34:15.655Z,290
2023-04-18T08:39:13.651Z,288
2023-04-18T08:44:16.296Z,288
2023-04-18T08:49:12.043Z,288.3
2023-04-18T08:54:11.553Z,288.9
2023-04-18T08:59:10.863Z,287.3
2023-04-18T09:05:30.991Z,295.5
2023-04-18T09:10:30.649Z,293.1
2023-04-18T09:15:31.065Z,292.9
2023-04-18T09:20:30.393Z,289.5
2023-04-18T09:25:29.865Z,291.4
2023-04-18T10:19:45.127Z,280.8
2023-04-18T10:24:45.685Z,277.8
2023-04-18T10:29:43.230Z,270.4
2023-04-18T10:34:43.348Z,264.1
2023-04-18T10:39:52.854Z,279.5
2023-04-18T10:44:54.074Z,272
2023-04-18T10:49:50.863Z,269.5
2023-04-18T10:54:50.316Z,272.4
2023-04-18T12:04:20.657Z,269.6
2023-04-18T12:09:18.769Z,277.3
2023-04-18T12:14:18.756Z,276.6
2023-04-18T12:19:18.133Z,269.6
2023-04-18T12:24:19.046Z,272.3
2023-04-18T12:29:16.166Z,270.7
2023-04-18T12:34:16.054Z,267.5
2023-04-18T12:39:16.171Z,259.9
2023-04-18T12:44:15.949Z,268.1
2023-04-18T12:49:14.225Z,265.3
2023-04-18T12:54:13.923Z,258.5
2023-04-18T12:59:13.929Z,260.4
2023-04-18T13:09:12.542Z,266.2
2023-04-18T13:14:12.869Z,265.1
2023-04-18T13:19:11.626Z,266.8
2023-04-18T13:24:10.961Z,272.5
2023-04-18T13:29:09.123Z,272.2
2023-04-18T13:34:08.603Z,271.7
2023-04-18T13:39:08.531Z,269.3
2023-04-18T13:44:07.833Z,271.5
2023-04-18T13:49:07.334Z,270.6
2023-04-18T13:54:07.291Z,275.4
2023-04-18T13:59:06.201Z,268.7
2023-04-18T14:05:27.156Z,280.9
2023-04-18T14:10:26.206Z,275.1
2023-04-18T14:15:26.543Z,292
2023-04-18T14:20:25.627Z,287.2
2023-04-18T14:25:24.937Z,289.6
2023-04-18T14:30:24.447Z,278.9
2023-04-18T14:35:24.112Z,285.6
2023-04-18T14:40:23.991Z,283.4
2023-04-18T14:45:21.544Z,291
2023-04-18T14:50:20.862Z,282.2
2023-04-18T14:55:20.690Z,288.7
2023-04-18T16:04:23.244Z,289.7
2023-04-18T16:09:21.335Z,288.3
2023-04-18T16:14:26.934Z,287.2
2023-04-18T16:19:19.966Z,285.5
2023-04-18T16:24:20.328Z,285.6
2023-04-18T16:29:19.824Z,285.2
2023-04-18T16:34:20.132Z,285.8
2023-04-18T16:39:19.587Z,286.2
2023-04-18T16:44:18.025Z,290.8
2023-04-18T16:49:17.732Z,287.2
2023-04-18T16:54:17.395Z,286.8
2023-04-18T17:24:16.016Z,286.3
2023-04-18T17:34:13.405Z,284.7
2023-04-18T17:44:12.660Z,284.2
2023-04-18T17:49:10.753Z,285.5
2023-04-18T17:54:10.157Z,284.9
2023-04-18T17:59:10.146Z,284.2
2023-04-18T18:05:30.391Z,293.7
2023-04-18T18:10:29.946Z,294.2
2023-04-18T18:15:30.888Z,290.8
2023-04-18T18:25:27.848Z,289.2
2023-04-18T18:30:27.886Z,288.3
2023-04-18T18:40:27.151Z,286.9
2023-04-18T18:55:25.893Z,284.7
2023-04-18T19:24:26.105Z,276.7
2023-04-18T19:29:25.237Z,280.5
2023-04-18T20:04:22.335Z,277.8
2023-04-18T20:09:19.384Z,277.8
2023-04-18T20:14:18.820Z,280.3
2023-04-18T20:19:18.953Z,275.1
2023-04-18T20:24:18.342Z,272
2023-04-18T20:29:17.894Z,273
2023-04-18T20:34:17.143Z,275.3
2023-04-18T20:39:17.487Z,275.5
2023-04-18T20:44:16.627Z,275.4
2023-04-18T20:49:17.675Z,274.2
2023-04-18T20:54:15.423Z,274
2023-04-18T20:59:14.854Z,274.3
2023-04-18T21:04:15.739Z,271.3
2023-04-18T21:09:14.456Z,272.2
2023-04-18T21:14:13.056Z,273.8
2023-04-18T21:19:13.038Z,272.8
2023-04-18T21:24:12.664Z,272.2
2023-04-18T21:29:13.090Z,271.6
2023-04-18T21:34:10.111Z,270.4
2023-04-18T21:39:10.139Z,271.2
2023-04-18T21:44:10.160Z,270
2023-04-18T21:49:09.701Z,269.2
2023-04-18T21:54:08.167Z,267.2
2023-04-18T21:59:07.854Z,266.7
2023-04-18T22:05:28.414Z,271.1
2023-04-18T22:20:27.174Z,270
2023-04-18T22:35:24.682Z,266.5
2023-04-18T22:45:25.154Z,266.1
2023-04-18T23:09:45.323Z,252.1
2023-04-18T23:44:51.467Z,249.8
